Time;durP1;ratioP1;P1;durP2;ratioP2;P2;SDS_P1;SDS_P2;PMS_P1;PMS_P2;Temp;Humidity;BMP_temperature;BMP_pressure;BME280_temperature;BME280_humidity;BME280_pressure;Samples;Min_cycle;Max_cycle;Signal;HPM_P1;HPM_P2
2023/06/17 00:01:18;;;;;;;4.78;2.60;;;21.20;53.50;;;;;;5114649;27;47314;-69
2023/06/17 00:03:45;;;;;;;5.75;2.50;;;21.20;53.30;;;;;;5113973;27;45737;-70
2023/06/17 00:06:14;;;;;;;4.53;2.90;;;21.20;54.00;;;;;;5116446;27;45409;-70
2023/06/17 00:08:40;;;;;;;5.03;2.38;;;21.10;53.60;;;;;;5117068;27;45381;-69
2023/06/17 00:11:07;;;;;;;3.60;2.42;;;21.10;53.30;;;;;;5114898;27;45385;-69
2023/06/17 00:13:34;;;;;;;6.88;2.25;;;21.10;53.50;;;;;;5116666;27;45537;-69
2023/06/17 00:16:04;;;;;;;7.72;2.65;;;21.10;53.30;;;;;;5116123;27;45461;-69
2023/06/17 00:18:32;;;;;;;8.90;2.90;;;21.10;52.80;;;;;;5118465;27;45534;-69
2023/06/17 00:20:59;;;;;;;7.72;2.72;;;21.10;52.70;;;;;;5119213;27;46242;-69
2023/06/17 00:23:27;;;;;;;3.85;2.40;;;21.10;52.70;;;;;;5113229;27;45539;-69
2023/06/17 00:25:54;;;;;;;5.40;2.13;;;21.10;52.80;;;;;;5111055;27;45367;-69
2023/06/17 00:28:21;;;;;;;8.57;2.30;;;21.20;52.60;;;;;;5115793;27;45584;-69
2023/06/17 00:30:48;;;;;;;4.47;2.13;;;21.10;52.90;;;;;;5122918;27;46596;-69
2023/06/17 00:33:15;;;;;;;4.10;2.40;;;21.10;53.90;;;;;;5109356;27;45281;-70
2023/06/17 00:35:42;;;;;;;6.03;2.90;;;21.10;55.10;;;;;;5120404;27;45367;-71
2023/06/17 00:38:09;;;;;;;8.23;2.65;;;21.00;55.20;;;;;;5123041;27;45409;-70
2023/06/17 00:40:37;;;;;;;4.68;2.40;;;20.90;55.10;;;;;;5121284;27;47363;-69
2023/06/17 00:43:04;;;;;;;3.80;2.25;;;20.90;55.10;;;;;;5115001;27;46458;-69
2023/06/17 00:45:38;;;;;;;5.10;2.80;;;20.90;55.10;;;;;;5112603;27;45386;-69
2023/06/17 00:48:06;;;;;;;3.78;2.42;;;20.90;55.10;;;;;;5120425;27;45692;-70
2023/06/17 00:50:33;;;;;;;6.03;2.70;;;20.90;55.10;;;;;;5120218;27;47101;-70
2023/06/17 00:53:00;;;;;;;4.90;3.17;;;20.80;55.00;;;;;;5120609;27;45342;-69
2023/06/17 00:55:28;;;;;;;6.80;2.42;;;20.80;55.00;;;;;;5116302;27;45517;-70
2023/06/17 00:57:57;;;;;;;3.97;2.17;;;20.80;55.30;;;;;;5113924;27;45615;-69
2023/06/17 01:00:24;;;;;;;3.60;2.60;;;20.80;55.80;;;;;;5111435;27;45406;-69
2023/06/17 01:02:51;;;;;;;6.65;2.53;;;20.80;56.20;;;;;;5113921;27;45580;-70
2023/06/17 01:05:19;;;;;;;6.97;2.60;;;20.70;55.50;;;;;;5119086;27;45363;-69
2023/06/17 01:07:58;;;;;;;6.65;2.85;;;20.70;55.90;;;;;;5115752;27;45468;-69
2023/06/17 01:10:33;;;;;;;6.75;2.88;;;20.70;56.20;;;;;;5115642;27;46576;-69
2023/06/17 01:13:04;;;;;;;3.83;2.58;;;20.70;56.40;;;;;;5113551;27;45660;-69
2023/06/17 01:15:33;;;;;;;3.40;2.40;;;20.60;56.60;;;;;;5118170;27;45413;-69
2023/06/17 01:18:00;;;;;;;5.22;2.60;;;20.60;56.60;;;;;;5116538;27;45428;-69
2023/06/17 01:20:28;;;;;;;6.68;2.78;;;20.60;56.40;;;;;;5118810;27;46511;-69
2023/06/17 01:22:56;;;;;;;7.18;2.38;;;20.60;57.00;;;;;;5118589;27;45315;-69
2023/06/17 01:25:29;;;;;;;5.35;2.38;;;20.60;57.10;;;;;;5120942;27;45433;-69
2023/06/17 01:27:59;;;;;;;6.40;3.03;;;20.60;57.40;;;;;;5117900;27;45518;-70
2023/06/17 01:30:28;;;;;;;8.23;3.42;;;20.30;58.10;;;;;;5114633;27;45527;-70
2023/06/17 01:32:55;;;;;;;12.23;3.67;;;19.40;60.90;;;;;;5111459;27;45362;-69
2023/06/17 01:35:24;;;;;;;7.82;3.47;;;19.00;61.90;;;;;;5115957;27;45509;-69
2023/06/17 01:37:55;;;;;;;6.88;3.50;;;19.00;62.20;;;;;;5114497;27;45647;-69
2023/06/17 01:40:25;;;;;;;8.55;3.15;;;18.90;62.60;;;;;;5114867;27;46528;-70
2023/06/17 01:42:54;;;;;;;7.05;3.40;;;18.90;61.40;;;;;;5120285;27;45342;-69
2023/06/17 01:45:21;;;;;;;10.45;3.60;;;18.90;61.30;;;;;;5119672;27;45452;-69
2023/06/17 01:47:48;;;;;;;6.82;3.80;;;19.00;61.20;;;;;;5121269;27;45465;-69
2023/06/17 01:50:18;;;;;;;7.38;3.17;;;19.00;61.00;;;;;;5113178;27;47427;-69
2023/06/17 01:52:45;;;;;;;12.82;3.47;;;19.00;61.10;;;;;;5111469;27;45804;-69
2023/06/17 01:55:12;;;;;;;7.43;3.10;;;18.90;61.10;;;;;;5113648;27;45450;-69
2023/06/17 01:57:41;;;;;;;7.10;3.53;;;18.90;61.20;;;;;;5122165;27;45309;-69
2023/06/17 02:00:08;;;;;;;8.18;3.65;;;18.90;61.00;;;;;;5101930;27;47455;-69
2023/06/17 02:02:35;;;;;;;9.23;3.75;;;18.90;61.70;;;;;;5114701;27;45294;-69
2023/06/17 02:05:03;;;;;;;9.85;3.40;;;18.80;62.40;;;;;;5121737;27;45423;-70
2023/06/17 02:07:30;;;;;;;9.77;3.78;;;18.80;62.90;;;;;;5124825;27;45591;-69
2023/06/17 02:09:57;;;;;;;12.27;3.30;;;18.70;63.40;;;;;;5123526;27;45390;-69
2023/06/17 02:12:24;;;;;;;8.23;3.10;;;18.60;64.20;;;;;;5121721;27;46367;-69
2023/06/17 02:14:52;;;;;;;9.13;3.55;;;18.50;64.80;;;;;;5115560;27;45281;-69
2023/06/17 02:17:19;;;;;;;7.18;3.40;;;18.40;64.80;;;;;;5116800;27;45291;-69
2023/06/17 02:19:46;;;;;;;11.20;3.72;;;18.40;64.80;;;;;;5121597;27;47169;-69
2023/06/17 02:22:13;;;;;;;17.63;3.63;;;18.40;64.90;;;;;;5121218;27;45310;-69
2023/06/17 02:24:40;;;;;;;6.90;3.42;;;18.40;64.80;;;;;;5120134;27;45356;-68
2023/06/17 02:27:06;;;;;;;7.75;3.50;;;18.40;65.10;;;;;;5111861;27;45312;-69
2023/06/17 02:29:33;;;;;;;8.60;3.50;;;18.30;65.00;;;;;;5115493;27;48291;-69
2023/06/17 02:32:01;;;;;;;10.40;4.07;;;18.30;64.30;;;;;;5112798;27;45399;-69
2023/06/17 02:34:28;;;;;;;10.30;4.15;;;18.30;63.70;;;;;;5119632;27;45479;-69
2023/06/17 02:36:56;;;;;;;8.07;3.83;;;18.30;63.90;;;;;;5110918;27;45248;-69
2023/06/17 02:39:23;;;;;;;11.55;4.03;;;18.30;64.00;;;;;;5116439;27;47635;-69
2023/06/17 02:41:50;;;;;;;7.93;4.35;;;18.30;63.80;;;;;;5122117;27;45455;-69
2023/06/17 02:44:17;;;;;;;13.02;4.28;;;18.30;63.80;;;;;;5112096;27;45362;-69
2023/06/17 02:46:43;;;;;;;7.10;3.67;;;18.30;64.10;;;;;;5127335;27;45617;-69
2023/06/17 02:49:13;;;;;;;6.10;3.92;;;18.30;64.00;;;;;;5111059;27;48000;-69
2023/06/17 02:51:40;;;;;;;9.13;4.18;;;18.30;63.80;;;;;;5118674;27;45384;-69
2023/06/17 02:54:07;;;;;;;10.63;4.78;;;18.20;63.60;;;;;;5114704;27;45420;-69
2023/06/17 02:56:34;;;;;;;12.55;4.32;;;18.10;63.60;;;;;;5124357;27;45389;-69
2023/06/17 02:59:02;;;;;;;8.68;4.55;;;18.10;64.70;;;;;;5114843;27;47621;-70
2023/06/17 03:01:30;;;;;;;10.02;3.90;;;18.00;63.50;;;;;;5124097;27;45337;-69
2023/06/17 03:04:01;;;;;;;5.43;3.70;;;18.00;64.00;;;;;;5113616;27;45459;-69
2023/06/17 03:06:31;;;;;;;9.88;4.90;;;18.00;64.20;;;;;;5121784;27;45438;-69
2023/06/17 03:08:58;;;;;;;9.25;4.10;;;18.00;64.90;;;;;;5121246;27;46505;-69
2023/06/17 03:11:25;;;;;;;9.57;4.13;;;18.10;63.00;;;;;;5118002;27;45270;-69
2023/06/17 03:13:52;;;;;;;6.53;4.03;;;18.10;62.90;;;;;;5122143;27;45551;-70
2023/06/17 03:16:19;;;;;;;11.20;4.13;;;18.20;62.70;;;;;;5109647;27;45679;-69
2023/06/17 03:18:47;;;;;;;7.03;3.78;;;18.20;63.10;;;;;;5117162;27;47351;-69
2023/06/17 03:21:13;;;;;;;7.63;4.13;;;18.20;63.60;;;;;;5124108;27;45232;-69
2023/06/17 03:23:42;;;;;;;7.32;4.35;;;18.20;64.30;;;;;;5115848;27;45367;-69
2023/06/17 03:26:09;;;;;;;7.25;4.35;;;18.20;64.00;;;;;;5116599;27;45308;-69
2023/06/17 03:28:36;;;;;;;13.25;4.68;;;18.20;62.80;;;;;;5117288;27;46077;-69
2023/06/17 03:31:03;;;;;;;11.77;4.38;;;18.30;62.10;;;;;;5115647;27;45262;-69
2023/06/17 03:33:29;;;;;;;10.43;4.70;;;18.40;62.20;;;;;;5111234;27;45272;-69
2023/06/17 03:35:57;;;;;;;6.50;4.22;;;18.40;61.90;;;;;;5105783;27;45557;-67
2023/06/17 03:38:23;;;;;;;7.00;4.05;;;18.30;62.70;;;;;;5116909;27;47436;-69
2023/06/17 03:40:52;;;;;;;11.20;4.70;;;18.30;63.30;;;;;;5116128;27;45284;-68
2023/06/17 03:43:18;;;;;;;8.98;4.53;;;18.20;63.50;;;;;;5116147;27;45367;-69
2023/06/17 03:45:45;;;;;;;6.80;4.22;;;18.20;63.60;;;;;;5115385;27;45569;-69
2023/06/17 03:48:12;;;;;;;7.78;4.47;;;18.20;64.10;;;;;;5103301;27;45388;-69
2023/06/17 03:50:39;;;;;;;10.90;4.40;;;18.20;64.00;;;;;;5112721;27;45450;-69
2023/06/17 03:53:08;;;;;;;7.40;4.47;;;18.10;64.60;;;;;;5122584;27;45432;-69
2023/06/17 03:55:36;;;;;;;7.90;3.95;;;18.10;65.60;;;;;;5118837;27;45246;-69
2023/06/17 03:58:04;;;;;;;7.60;4.57;;;18.10;65.30;;;;;;5117617;27;45276;-70
2023/06/17 04:00:31;;;;;;;9.05;4.20;;;17.90;65.70;;;;;;5113807;27;45437;-69
2023/06/17 04:02:57;;;;;;;8.82;4.78;;;17.80;65.60;;;;;;5119082;27;45541;-70
2023/06/17 04:05:31;;;;;;;9.82;4.78;;;17.80;66.10;;;;;;5120860;27;45462;-69
2023/06/17 04:07:58;;;;;;;8.52;4.57;;;17.80;66.20;;;;;;5114631;27;47481;-69
2023/06/17 04:10:25;;;;;;;9.57;4.57;;;17.80;66.40;;;;;;5117802;27;45549;-70
2023/06/17 04:12:52;;;;;;;8.20;4.60;;;17.80;67.00;;;;;;5119902;27;45682;-69
2023/06/17 04:15:20;;;;;;;12.73;5.38;;;17.70;67.50;;;;;;5113489;27;45601;-69
2023/06/17 04:17:47;;;;;;;14.45;4.60;;;17.70;67.50;;;;;;5121235;27;47659;-69
2023/06/17 04:20:14;;;;;;;7.07;4.78;;;17.70;67.20;;;;;;5115198;27;45354;-69
2023/06/17 04:22:42;;;;;;;9.60;4.50;;;17.90;66.30;;;;;;5117890;27;45370;-70
2023/06/17 04:25:10;;;;;;;8.38;4.70;;;17.90;66.00;;;;;;5113395;27;45582;-69
2023/06/17 04:27:38;;;;;;;7.35;4.72;;;17.80;66.80;;;;;;5122840;27;45312;-69
2023/06/17 04:30:07;;;;;;;9.82;4.25;;;17.70;67.40;;;;;;5119467;27;45492;-69
2023/06/17 04:32:38;;;;;;;6.30;4.38;;;17.70;67.50;;;;;;5119422;27;45483;-69
2023/06/17 04:35:06;;;;;;;13.75;4.80;;;17.80;67.70;;;;;;5123990;27;45306;-69
2023/06/17 04:37:34;;;;;;;6.38;3.90;;;17.80;67.60;;;;;;5122680;27;46157;-69
2023/06/17 04:40:02;;;;;;;5.15;4.00;;;18.00;66.80;;;;;;5123408;27;45482;-69
2023/06/17 04:42:33;;;;;;;10.48;4.70;;;18.20;64.80;;;;;;5115234;27;45258;-69
2023/06/17 04:45:00;;;;;;;8.98;4.40;;;18.30;63.50;;;;;;5115233;27;45330;-69
2023/06/17 04:47:28;;;;;;;5.93;4.10;;;18.40;63.60;;;;;;5116358;27;48407;-69
2023/06/17 04:49:56;;;;;;;6.28;3.97;;;18.60;62.90;;;;;;5106541;27;45420;-69
2023/06/17 04:52:24;;;;;;;9.95;4.05;;;18.70;62.60;;;;;;5112226;27;45250;-69
2023/06/17 04:54:51;;;;;;;7.63;3.97;;;19.00;63.20;;;;;;5119553;27;45572;-69
2023/06/17 04:57:18;;;;;;;6.95;3.67;;;19.30;63.00;;;;;;5115540;27;46850;-69
2023/06/17 04:59:44;;;;;;;5.35;3.88;;;19.40;62.90;;;;;;5121110;27;45434;-69
2023/06/17 05:02:11;;;;;;;4.47;3.30;;;19.30;62.50;;;;;;5118212;27;45432;-69
2023/06/17 05:04:38;;;;;;;7.32;3.92;;;19.30;63.20;;;;;;5119597;27;45599;-69
2023/06/17 05:07:06;;;;;;;6.90;4.40;;;19.40;62.40;;;;;;5118435;27;46362;-69
2023/06/17 05:09:33;;;;;;;9.18;4.35;;;19.50;63.10;;;;;;5120782;27;45463;-69
2023/06/17 05:12:00;;;;;;;7.63;3.80;;;19.60;62.30;;;;;;5119607;27;45567;-69
2023/06/17 05:14:27;;;;;;;8.80;4.68;;;19.70;62.60;;;;;;5120395;27;45475;-70
2023/06/17 05:16:54;;;;;;;5.68;4.13;;;19.50;63.00;;;;;;5119020;27;46542;-70
2023/06/17 05:19:21;;;;;;;12.77;3.78;;;19.50;63.50;;;;;;5114450;27;46747;-69
2023/06/17 05:21:48;;;;;;;5.30;3.85;;;19.50;63.30;;;;;;5114402;27;45373;-69
2023/06/17 05:24:16;;;;;;;6.70;3.90;;;19.50;63.60;;;;;;5118496;27;45482;-69
2023/06/17 05:26:42;;;;;;;13.45;4.95;;;19.60;64.20;;;;;;5117131;27;47368;-69
2023/06/17 05:29:09;;;;;;;7.30;3.88;;;19.60;64.00;;;;;;5105200;27;45394;-69
2023/06/17 05:31:36;;;;;;;8.45;4.88;;;19.60;64.40;;;;;;5113437;27;45276;-69
2023/06/17 05:34:03;;;;;;;6.78;4.25;;;19.50;64.60;;;;;;5112978;27;45666;-69
2023/06/17 05:36:29;;;;;;;7.13;4.43;;;19.60;65.00;;;;;;5121588;27;46608;-69
2023/06/17 05:38:56;;;;;;;8.95;4.45;;;19.50;64.90;;;;;;5114404;27;45501;-69
2023/06/17 05:41:24;;;;;;;11.43;4.28;;;19.60;65.90;;;;;;5116486;27;45438;-69
2023/06/17 05:43:51;;;;;;;9.45;4.15;;;19.50;65.70;;;;;;5115185;27;45382;-69
2023/06/17 05:46:18;;;;;;;6.82;4.40;;;19.60;66.00;;;;;;5116428;27;46394;-69
2023/06/17 05:48:44;;;;;;;9.00;4.47;;;19.60;65.60;;;;;;5117491;27;45360;-69
2023/06/17 05:51:11;;;;;;;6.80;4.00;;;19.60;65.70;;;;;;5115665;27;45400;-69
2023/06/17 05:53:38;;;;;;;8.48;4.22;;;19.70;65.40;;;;;;5124708;27;45386;-69
2023/06/17 05:56:09;;;;;;;7.28;4.30;;;19.90;65.10;;;;;;5124343;27;47145;-69
2023/06/17 05:58:38;;;;;;;9.52;3.38;;;20.00;65.10;;;;;;5123539;27;45414;-69
2023/06/17 06:01:05;;;;;;;6.72;3.90;;;20.20;61.60;;;;;;5115329;27;45636;-69
2023/06/17 06:03:31;;;;;;;6.50;3.10;;;20.20;62.20;;;;;;5122701;27;45584;-69
2023/06/17 06:05:58;;;;;;;5.75;3.47;;;20.20;61.70;;;;;;5123345;27;46564;-69
2023/06/17 06:08:25;;;;;;;8.05;3.60;;;20.40;59.90;;;;;;5116593;27;45339;-69
2023/06/17 06:10:52;;;;;;;7.10;2.92;;;20.40;60.00;;;;;;5121362;27;45400;-69
2023/06/17 06:13:18;;;;;;;5.53;3.42;;;20.50;59.50;;;;;;5122281;27;45398;-69
2023/06/17 06:15:47;;;;;;;6.80;3.65;;;20.70;58.80;;;;;;5121282;27;45286;-69
2023/06/17 06:18:14;;;;;;;7.53;3.55;;;20.70;58.90;;;;;;5124199;27;45354;-70
2023/06/17 06:20:41;;;;;;;6.72;3.80;;;20.70;59.20;;;;;;5125952;27;45249;-69
2023/06/17 06:23:09;;;;;;;4.88;2.90;;;20.70;58.50;;;;;;5119294;27;45444;-69
2023/06/17 06:25:35;;;;;;;6.82;3.28;;;20.70;58.80;;;;;;5112265;27;47227;-69
2023/06/17 06:28:02;;;;;;;5.03;3.28;;;20.80;58.20;;;;;;5121900;27;45541;-69
2023/06/17 06:30:30;;;;;;;7.07;4.45;;;20.80;58.70;;;;;;5115287;27;45646;-70
2023/06/17 06:32:58;;;;;;;6.57;3.72;;;20.70;59.80;;;;;;5106699;27;45434;-70
2023/06/17 06:35:25;;;;;;;3.75;2.80;;;20.90;59.40;;;;;;5117670;27;48367;-69
2023/06/17 06:37:52;;;;;;;5.75;3.45;;;21.10;58.90;;;;;;5122786;27;45478;-69
2023/06/17 06:40:19;;;;;;;12.02;4.65;;;21.30;58.50;;;;;;5110517;27;45387;-69
2023/06/17 06:42:46;;;;;;;7.47;3.08;;;21.20;58.40;;;;;;5121434;27;45340;-69
2023/06/17 06:45:13;;;;;;;6.65;3.92;;;21.00;58.60;;;;;;5116504;27;48310;-69
2023/06/17 06:47:39;;;;;;;6.65;3.80;;;20.90;59.40;;;;;;5124195;27;45482;-69
2023/06/17 06:50:08;;;;;;;7.07;3.70;;;20.90;60.20;;;;;;5116015;27;45347;-69
2023/06/17 06:52:35;;;;;;;4.85;3.00;;;20.80;58.00;;;;;;5125737;27;45257;-69
2023/06/17 06:55:02;;;;;;;6.55;3.35;;;20.70;57.60;;;;;;5116715;27;46265;-69
2023/06/17 06:57:29;;;;;;;5.38;3.03;;;20.70;58.80;;;;;;5119655;27;45674;-69
2023/06/17 06:59:56;;;;;;;5.65;2.97;;;20.80;59.30;;;;;;5115034;27;45542;-70
2023/06/17 07:02:23;;;;;;;4.85;2.50;;;20.90;59.20;;;;;;5117658;27;45584;-69
2023/06/17 07:04:51;;;;;;;6.03;2.80;;;21.10;58.90;;;;;;5116732;27;47187;-69
2023/06/17 07:07:19;;;;;;;6.45;2.88;;;21.30;58.20;;;;;;5111598;27;45380;-69
2023/06/17 07:09:46;;;;;;;7.13;3.85;;;21.30;58.40;;;;;;5109580;27;45457;-70
2023/06/17 07:12:12;;;;;;;6.15;3.60;;;21.30;58.10;;;;;;5117923;27;45456;-70
2023/06/17 07:14:39;;;;;;;11.07;3.38;;;21.20;58.50;;;;;;5118568;27;48444;-69
2023/06/17 07:17:06;;;;;;;3.92;2.78;;;21.20;58.50;;;;;;5121513;27;45595;-70
2023/06/17 07:19:33;;;;;;;4.85;3.45;;;21.30;58.20;;;;;;5117391;27;45403;-69
2023/06/17 07:22:00;;;;;;;5.47;3.28;;;21.40;57.00;;;;;;5122483;27;45303;-70
2023/06/17 07:24:28;;;;;;;6.25;3.58;;;21.40;59.20;;;;;;5114517;27;45328;-69
2023/06/17 07:26:55;;;;;;;5.85;2.95;;;21.40;57.90;;;;;;5105029;27;45841;-69
2023/06/17 07:29:22;;;;;;;3.95;2.97;;;21.40;58.00;;;;;;5111008;27;45353;-70
2023/06/17 07:31:48;;;;;;;6.35;3.05;;;21.40;58.40;;;;;;5111877;27;45250;-70
2023/06/17 07:34:15;;;;;;;6.38;3.60;;;21.50;58.60;;;;;;5124309;27;46297;-69
2023/06/17 07:36:42;;;;;;;4.68;2.92;;;21.50;59.00;;;;;;5115282;27;45429;-69
2023/06/17 07:39:09;;;;;;;4.90;3.53;;;21.50;58.90;;;;;;5120921;27;45438;-69
2023/06/17 07:41:37;;;;;;;5.22;3.28;;;21.50;59.30;;;;;;5121703;27;45581;-69
2023/06/17 07:44:05;;;;;;;6.88;3.38;;;21.50;59.50;;;;;;5111812;27;45374;-69
2023/06/17 07:46:32;;;;;;;5.95;3.60;;;21.50;59.70;;;;;;5109927;27;45658;-69
2023/06/17 07:48:58;;;;;;;6.00;3.75;;;21.50;59.70;;;;;;5117794;27;45494;-69
2023/06/17 07:51:25;;;;;;;4.65;3.13;;;21.50;60.00;;;;;;5111069;27;45455;-70
2023/06/17 07:53:52;;;;;;;5.60;3.20;;;21.50;59.90;;;;;;5111905;27;47039;-69
2023/06/17 07:56:19;;;;;;;7.55;3.72;;;21.50;59.40;;;;;;5115920;27;45269;-70
2023/06/17 07:58:48;;;;;;;11.77;3.58;;;21.50;59.20;;;;;;5115120;27;45351;-69
2023/06/17 08:01:15;;;;;;;4.15;2.97;;;21.50;58.50;;;;;;5114759;27;45533;-70
2023/06/17 08:03:42;;;;;;;4.57;3.10;;;21.60;58.40;;;;;;5118551;27;47766;-70
2023/06/17 08:06:13;;;;;;;4.43;2.45;;;21.60;58.10;;;;;;5124004;27;45396;-70
2023/06/17 08:08:40;;;;;;;6.07;3.08;;;21.60;58.00;;;;;;5115967;27;45355;-69
2023/06/17 08:11:06;;;;;;;6.00;3.33;;;21.70;58.00;;;;;;5122142;27;45334;-69
2023/06/17 08:13:33;;;;;;;8.10;3.33;;;21.60;57.50;;;;;;5119103;27;47274;-70
2023/06/17 08:16:01;;;;;;;4.47;2.92;;;21.60;57.80;;;;;;5121410;27;45383;-69
2023/06/17 08:18:28;;;;;;;4.32;2.90;;;21.60;57.40;;;;;;5119426;27;45316;-69
2023/06/17 08:20:55;;;;;;;4.72;2.88;;;21.60;57.30;;;;;;5119790;27;45391;-69
2023/06/17 08:23:22;;;;;;;4.28;2.20;;;21.70;56.90;;;;;;5120793;27;47522;-70
2023/06/17 08:25:49;;;;;;;3.88;2.47;;;21.70;55.90;;;;;;5114804;27;45294;-69
2023/06/17 08:28:16;;;;;;;3.03;2.30;;;21.80;56.00;;;;;;5103633;27;45495;-70
2023/06/17 08:30:43;;;;;;;4.82;2.58;;;21.80;53.90;;;;;;5109977;27;45581;-69
2023/06/17 08:33:11;;;;;;;6.78;2.60;;;21.80;54.70;;;;;;5121282;27;45311;-69
2023/06/17 08:35:38;;;;;;;3.25;2.03;;;21.80;51.40;;;;;;5111839;27;45376;-70
2023/06/17 08:38:04;;;;;;;3.70;2.42;;;21.80;52.10;;;;;;5104070;27;45430;-69
2023/06/17 08:40:33;;;;;;;5.57;2.00;;;21.80;52.30;;;;;;5112983;27;45388;-69
2023/06/17 08:43:02;;;;;;;3.90;2.00;;;21.80;49.60;;;;;;5112698;27;45334;-70
2023/06/17 08:45:29;;;;;;;3.15;2.00;;;21.90;51.60;;;;;;5122563;27;45287;-69
2023/06/17 08:47:57;;;;;;;6.32;2.25;;;21.90;51.30;;;;;;5121981;27;45305;-69
2023/06/17 08:50:27;;;;;;;4.70;2.00;;;21.90;50.20;;;;;;5108811;27;45455;-69
2023/06/17 08:52:54;;;;;;;2.75;1.98;;;21.90;49.20;;;;;;5112245;27;47085;-70
2023/06/17 08:55:21;;;;;;;2.92;1.80;;;21.90;50.40;;;;;;5108620;27;45325;-70
2023/06/17 08:57:50;;;;;;;5.75;2.00;;;21.90;49.70;;;;;;5115035;27;45368;-69
2023/06/17 09:00:18;;;;;;;4.43;2.15;;;21.90;51.00;;;;;;5106454;27;45300;-70
2023/06/17 09:02:45;;;;;;;9.82;2.30;;;21.90;51.70;;;;;;5113627;27;46406;-70
2023/06/17 09:05:12;;;;;;;10.07;2.30;;;21.90;50.70;;;;;;5111871;27;45356;-70
2023/06/17 09:07:42;;;;;;;6.13;2.45;;;21.90;50.40;;;;;;5117113;27;45349;-69
2023/06/17 09:10:09;;;;;;;7.60;2.60;;;22.00;49.50;;;;;;5117894;27;45515;-69
2023/06/17 09:12:37;;;;;;;5.50;2.33;;;22.00;50.40;;;;;;5117455;27;45490;-70
2023/06/17 09:15:05;;;;;;;5.85;2.00;;;22.00;49.70;;;;;;5113024;27;45392;-69
2023/06/17 09:17:33;;;;;;;5.22;2.50;;;22.00;49.90;;;;;;5118509;27;45324;-69
2023/06/17 09:20:10;;;;;;;5.00;2.33;;;22.10;50.40;;;;;;5117211;27;45306;-69
2023/06/17 09:22:41;;;;;;;4.10;2.30;;;22.10;49.20;;;;;;5118256;27;46176;-69
2023/06/17 09:25:13;;;;;;;5.68;2.45;;;22.10;49.60;;;;;;5107150;27;45301;-70
2023/06/17 09:27:51;;;;;;;10.90;2.63;;;22.10;49.30;;;;;;5114278;27;45368;-70
2023/06/17 09:30:20;;;;;;;3.95;2.13;;;22.20;50.90;;;;;;5108854;27;45248;-69
2023/06/17 09:32:49;;;;;;;5.20;2.58;;;22.10;50.90;;;;;;5119548;27;45307;-70
2023/06/17 09:35:17;;;;;;;10.07;2.72;;;22.10;50.50;;;;;;5112972;27;45416;-69
2023/06/17 09:37:49;;;;;;;4.75;2.60;;;22.10;49.60;;;;;;5119832;27;45263;-67
2023/06/17 09:40:16;;;;;;;4.10;2.45;;;22.20;49.80;;;;;;5109853;27;45401;-69
2023/06/17 09:42:44;;;;;;;6.50;2.20;;;22.20;50.40;;;;;;5115930;27;47529;-70
2023/06/17 09:45:13;;;;;;;5.50;1.95;;;22.10;50.40;;;;;;5120047;27;45425;-69
2023/06/17 09:47:40;;;;;;;9.05;2.50;;;22.10;50.50;;;;;;5118419;27;45435;-70
2023/06/17 09:50:09;;;;;;;4.55;2.38;;;22.10;49.80;;;;;;5115650;27;45438;-70
2023/06/17 09:52:38;;;;;;;4.95;2.40;;;22.10;50.70;;;;;;5115050;27;45337;-69
2023/06/17 09:55:07;;;;;;;4.40;2.60;;;22.10;51.80;;;;;;5110291;27;45939;-69
2023/06/17 09:57:36;;;;;;;4.28;2.75;;;22.20;50.70;;;;;;5122216;27;45416;-71
2023/06/17 10:00:10;;;;;;;6.57;2.80;;;22.30;50.10;;;;;;5116572;27;45275;-69
2023/06/17 10:02:38;;;;;;;7.85;2.50;;;22.40;49.20;;;;;;5124242;27;46552;-69
2023/06/17 10:05:06;;;;;;;3.45;2.28;;;22.40;50.30;;;;;;5110909;27;45490;-69
2023/06/17 10:07:33;;;;;;;4.00;2.53;;;22.30;49.30;;;;;;5125343;27;45468;-69
2023/06/17 10:10:02;;;;;;;3.97;2.35;;;22.20;50.90;;;;;;5116892;27;45567;-69
2023/06/17 10:12:32;;;;;;;3.45;2.60;;;22.10;51.70;;;;;;5121393;27;45492;-70
2023/06/17 10:15:00;;;;;;;5.57;2.90;;;22.00;51.40;;;;;;5111129;27;45572;-70
2023/06/17 10:17:28;;;;;;;3.83;2.45;;;22.00;53.30;;;;;;5119645;27;45251;-69
2023/06/17 10:19:56;;;;;;;5.47;2.60;;;21.90;53.50;;;;;;5116600;27;45459;-69
2023/06/17 10:22:24;;;;;;;3.50;2.47;;;21.90;52.00;;;;;;5111366;27;46298;-69
2023/06/17 10:24:51;;;;;;;7.78;3.00;;;22.00;51.00;;;;;;5104415;27;45453;-68
2023/06/17 10:27:20;;;;;;;6.45;2.72;;;22.00;49.70;;;;;;5122336;27;45316;-68
2023/06/17 10:29:50;;;;;;;4.53;2.33;;;22.00;51.00;;;;;;5112910;27;45509;-68
2023/06/17 10:32:22;;;;;;;5.65;3.08;;;22.10;49.60;;;;;;5116767;27;47079;-69
2023/06/17 10:35:10;;;;;;;8.20;3.90;;;22.20;49.50;;;;;;5110641;27;45920;-69
2023/06/17 10:37:41;;;;;;;5.88;2.53;;;22.20;49.80;;;;;;5119419;27;45383;-70
2023/06/17 10:40:20;;;;;;;6.50;3.42;;;22.20;48.50;;;;;;5113781;27;45331;-69
2023/06/17 10:42:54;;;;;;;6.50;2.88;;;22.30;49.60;;;;;;5118172;27;47357;-69
2023/06/17 10:45:22;;;;;;;5.30;2.47;;;22.20;48.10;;;;;;5112576;27;45665;-69
2023/06/17 10:47:49;;;;;;;8.13;2.70;;;22.30;49.30;;;;;;5112614;27;45378;-70
2023/06/17 10:50:20;;;;;;;4.88;2.78;;;22.40;48.00;;;;;;5116655;27;45411;-69
2023/06/17 10:52:47;;;;;;;5.70;2.70;;;22.50;49.20;;;;;;5116435;27;46078;-69
2023/06/17 10:55:14;;;;;;;6.45;3.25;;;22.50;49.40;;;;;;5121288;27;45300;-69
2023/06/17 10:57:41;;;;;;;6.68;2.67;;;22.50;49.60;;;;;;5119479;27;45299;-69
2023/06/17 11:00:10;;;;;;;5.57;2.90;;;22.50;47.40;;;;;;5113886;27;45328;-70
2023/06/17 11:02:39;;;;;;;6.72;2.90;;;22.60;49.20;;;;;;5111966;27;45469;-70
2023/06/17 11:05:07;;;;;;;8.52;3.30;;;22.50;45.80;;;;;;5105932;27;45716;-69
2023/06/17 11:07:34;;;;;;;6.32;2.85;;;22.60;45.70;;;;;;5116416;27;45457;-70
2023/06/17 11:10:01;;;;;;;5.60;2.10;;;22.60;48.10;;;;;;5121789;27;45368;-69
2023/06/17 11:12:27;;;;;;;4.22;2.08;;;22.50;50.70;;;;;;5121866;27;47791;-70
2023/06/17 11:14:54;;;;;;;6.30;3.10;;;22.50;50.90;;;;;;5119092;27;45311;-70
2023/06/17 11:17:21;;;;;;;5.00;2.40;;;22.50;50.20;;;;;;5121421;27;45428;-70
2023/06/17 11:19:49;;;;;;;3.58;2.28;;;22.50;48.40;;;;;;5112639;27;45308;-69
2023/06/17 11:22:16;;;;;;;5.80;2.72;;;22.50;48.00;;;;;;5122733;27;48014;-69
2023/06/17 11:24:45;;;;;;;4.00;2.50;;;22.50;47.30;;;;;;5118069;27;45412;-69
2023/06/17 11:27:12;;;;;;;4.43;2.47;;;22.50;46.10;;;;;;5115118;27;45307;-69
2023/06/17 11:29:42;;;;;;;8.10;2.72;;;22.40;46.80;;;;;;5112886;27;45296;-70
2023/06/17 11:32:11;;;;;;;4.28;2.35;;;22.40;49.20;;;;;;5116061;27;45249;-70
2023/06/17 11:34:37;;;;;;;4.25;2.97;;;22.30;48.70;;;;;;5125036;27;45287;-70
2023/06/17 11:37:10;;;;;;;5.03;2.50;;;22.40;48.40;;;;;;5117706;27;45449;-71
2023/06/17 11:39:38;;;;;;;7.32;2.75;;;22.50;49.30;;;;;;5114019;27;45301;-69
2023/06/17 11:42:05;;;;;;;6.35;2.70;;;22.50;50.60;;;;;;5117919;27;46748;-70
2023/06/17 11:44:34;;;;;;;6.15;2.17;;;22.50;49.90;;;;;;5116267;27;45392;-71
2023/06/17 11:47:04;;;;;;;3.42;2.22;;;22.50;50.20;;;;;;5120643;27;45356;-71
2023/06/17 11:49:31;;;;;;;3.20;2.20;;;22.50;51.90;;;;;;5116564;27;45544;-70
2023/06/17 11:52:05;;;;;;;4.05;2.08;;;22.40;53.80;;;;;;5106878;27;47634;-69
2023/06/17 11:54:34;;;;;;;3.40;2.15;;;22.40;52.90;;;;;;5119920;27;45794;-67
2023/06/17 11:57:03;;;;;;;3.65;2.53;;;22.50;50.10;;;;;;5124389;27;45534;-73
2023/06/17 11:59:31;;;;;;;3.38;2.47;;;22.50;46.90;;;;;;5125825;27;45280;-69
2023/06/17 12:01:58;;;;;;;7.10;2.40;;;22.60;54.90;;;;;;5124667;27;46588;-70
2023/06/17 12:04:25;;;;;;;5.10;2.60;;;22.50;56.40;;;;;;5118903;27;45396;-67
2023/06/17 12:06:53;;;;;;;3.92;2.55;;;22.50;46.60;;;;;;5112607;27;45466;-69
2023/06/17 12:09:21;;;;;;;3.70;1.98;;;22.50;50.90;;;;;;5123443;27;45621;-65
2023/06/17 12:11:49;;;;;;;4.90;2.47;;;22.40;45.30;;;;;;5123889;27;45425;-64
2023/06/17 12:14:16;;;;;;;6.10;2.60;;;22.50;48.10;;;;;;5120368;27;45473;-65
2023/06/17 12:16:43;;;;;;;8.15;2.85;;;22.50;50.90;;;;;;5123224;27;45398;-64
2023/06/17 12:19:15;;;;;;;7.45;2.55;;;22.60;48.00;;;;;;5121313;27;45396;-64
2023/06/17 12:21:42;;;;;;;12.23;2.63;;;22.60;42.20;;;;;;5121721;27;46089;-64
2023/06/17 12:24:09;;;;;;;5.18;2.50;;;22.60;42.60;;;;;;5121944;27;45335;-64
2023/06/17 12:26:36;;;;;;;9.77;2.50;;;22.60;44.60;;;;;;5124008;27;45332;-64
2023/06/17 12:29:04;;;;;;;5.28;2.17;;;22.60;41.70;;;;;;5113564;27;45311;-64
2023/06/17 12:31:31;;;;;;;4.05;2.15;;;22.60;53.50;;;;;;5120884;27;45734;-65
2023/06/17 12:33:57;;;;;;;8.90;2.45;;;22.60;43.60;;;;;;5123595;27;45291;-64
2023/06/17 12:36:26;;;;;;;2.53;2.00;;;22.50;52.40;;;;;;5120436;27;45392;-64
2023/06/17 12:38:53;;;;;;;5.55;2.08;;;22.50;44.00;;;;;;5115296;27;45422;-65
2023/06/17 12:41:19;;;;;;;6.53;2.00;;;22.50;46.50;;;;;;5114866;27;47955;-65
2023/06/17 12:43:46;;;;;;;6.18;1.98;;;22.50;49.80;;;;;;5117225;27;45435;-64
2023/06/17 12:46:15;;;;;;;5.30;2.17;;;22.50;49.60;;;;;;5117966;27;45488;-65
2023/06/17 12:48:42;;;;;;;4.18;2.15;;;22.50;54.00;;;;;;5105782;27;45616;-65